sensor_id;sensor_type;location;lat;lon;timestamp;P1;durP1;ratioP1;P2;durP2;ratioP2
249;SDS011;109;19.806;-70.704;2024-01-25T00:00:46;74.60;;;10.97;;
249;SDS011;109;19.806;-70.704;2024-01-25T00:03:12;41.03;;;9.97;;
249;SDS011;109;19.806;-70.704;2024-01-25T00:05:38;71.57;;;11.13;;
249;SDS011;109;19.806;-70.704;2024-01-25T00:08:05;54.07;;;9.57;;
249;SDS011;109;19.806;-70.704;2024-01-25T00:10:31;48.53;;;9.60;;
249;SDS011;109;19.806;-70.704;2024-01-25T00:12:58;59.67;;;9.20;;
249;SDS011;109;19.806;-70.704;2024-01-25T00:15:24;57.10;;;9.33;;
249;SDS011;109;19.806;-70.704;2024-01-25T00:17:58;52.67;;;9.00;;
249;SDS011;109;19.806;-70.704;2024-01-25T00:20:24;46.67;;;9.03;;
249;SDS011;109;19.806;-70.704;2024-01-25T00:22:56;39.80;;;7.30;;
249;SDS011;109;19.806;-70.704;2024-01-25T00:25:23;30.03;;;7.13;;
249;SDS011;109;19.806;-70.704;2024-01-25T00:27:56;55.53;;;8.97;;
249;SDS011;109;19.806;-70.704;2024-01-25T00:30:23;57.40;;;9.13;;
249;SDS011;109;19.806;-70.704;2024-01-25T00:32:56;76.90;;;10.50;;
249;SDS011;109;19.806;-70.704;2024-01-25T00:35:23;67.37;;;10.40;;
249;SDS011;109;19.806;-70.704;2024-01-25T00:37:57;50.40;;;7.60;;
249;SDS011;109;19.806;-70.704;2024-01-25T00:40:23;46.43;;;8.10;;
249;SDS011;109;19.806;-70.704;2024-01-25T00:42:57;52.33;;;8.97;;
249;SDS011;109;19.806;-70.704;2024-01-25T00:45:23;49.60;;;8.50;;
249;SDS011;109;19.806;-70.704;2024-01-25T00:47:57;38.07;;;7.00;;
249;SDS011;109;19.806;-70.704;2024-01-25T00:50:23;43.53;;;7.50;;
249;SDS011;109;19.806;-70.704;2024-01-25T00:52:58;48.87;;;8.23;;
249;SDS011;109;19.806;-70.704;2024-01-25T00:55:24;46.97;;;7.90;;
249;SDS011;109;19.806;-70.704;2024-01-25T01:05:46;40.83;;;7.87;;
249;SDS011;109;19.806;-70.704;2024-01-25T01:08:19;42.17;;;7.30;;
249;SDS011;109;19.806;-70.704;2024-01-25T01:10:46;28.63;;;7.23;;
249;SDS011;109;19.806;-70.704;2024-01-25T01:13:20;34.57;;;7.07;;
249;SDS011;109;19.806;-70.704;2024-01-25T01:15:46;37.53;;;7.40;;
249;SDS011;109;19.806;-70.704;2024-01-25T01:18:18;51.73;;;9.90;;
249;SDS011;109;19.806;-70.704;2024-01-25T01:20:45;39.37;;;7.17;;
249;SDS011;109;19.806;-70.704;2024-01-25T01:23:17;40.23;;;7.13;;
249;SDS011;109;19.806;-70.704;2024-01-25T01:25:44;39.60;;;6.40;;
249;SDS011;109;19.806;-70.704;2024-01-25T01:28:16;37.23;;;7.30;;
249;SDS011;109;19.806;-70.704;2024-01-25T01:30:43;38.57;;;6.63;;
249;SDS011;109;19.806;-70.704;2024-01-25T01:33:17;41.83;;;7.30;;
249;SDS011;109;19.806;-70.704;2024-01-25T01:35:44;34.60;;;6.50;;
249;SDS011;109;19.806;-70.704;2024-01-25T01:38:16;57.33;;;7.93;;
249;SDS011;109;19.806;-70.704;2024-01-25T01:40:44;42.40;;;7.40;;
249;SDS011;109;19.806;-70.704;2024-01-25T01:43:35;38.77;;;7.30;;
249;SDS011;109;19.806;-70.704;2024-01-25T01:49:21;19.47;;;5.20;;
249;SDS011;109;19.806;-70.704;2024-01-25T01:51:47;33.50;;;6.40;;
249;SDS011;109;19.806;-70.704;2024-01-25T01:54:21;32.23;;;6.00;;
249;SDS011;109;19.806;-70.704;2024-01-25T01:56:48;32.67;;;7.27;;
249;SDS011;109;19.806;-70.704;2024-01-25T01:59:21;41.50;;;6.10;;
249;SDS011;109;19.806;-70.704;2024-01-25T02:01:51;27.60;;;5.70;;
249;SDS011;109;19.806;-70.704;2024-01-25T02:04:25;28.80;;;5.60;;
249;SDS011;109;19.806;-70.704;2024-01-25T02:06:51;22.67;;;6.13;;
249;SDS011;109;19.806;-70.704;2024-01-25T02:09:25;35.53;;;7.07;;
249;SDS011;109;19.806;-70.704;2024-01-25T02:12:01;30.23;;;5.17;;
249;SDS011;109;19.806;-70.704;2024-01-25T02:14:35;25.03;;;5.27;;
249;SDS011;109;19.806;-70.704;2024-01-25T02:17:01;26.53;;;5.27;;
249;SDS011;109;19.806;-70.704;2024-01-25T02:19:35;27.03;;;5.30;;
249;SDS011;109;19.806;-70.704;2024-01-25T02:22:01;24.17;;;5.33;;
249;SDS011;109;19.806;-70.704;2024-01-25T02:24:37;24.87;;;5.40;;
249;SDS011;109;19.806;-70.704;2024-01-25T02:27:04;32.97;;;5.90;;
249;SDS011;109;19.806;-70.704;2024-01-25T02:29:36;32.80;;;6.03;;
249;SDS011;109;19.806;-70.704;2024-01-25T02:32:03;32.23;;;5.87;;
249;SDS011;109;19.806;-70.704;2024-01-25T02:34:37;36.43;;;5.80;;
249;SDS011;109;19.806;-70.704;2024-01-25T02:37:03;30.90;;;5.27;;
249;SDS011;109;19.806;-70.704;2024-01-25T02:39:43;31.37;;;5.70;;
249;SDS011;109;19.806;-70.704;2024-01-25T02:42:23;24.83;;;5.93;;
249;SDS011;109;19.806;-70.704;2024-01-25T02:44:49;30.10;;;5.63;;
249;SDS011;109;19.806;-70.704;2024-01-25T02:47:21;48.37;;;5.87;;
249;SDS011;109;19.806;-70.704;2024-01-25T02:49:48;33.23;;;6.27;;
249;SDS011;109;19.806;-70.704;2024-01-25T02:52:20;21.40;;;5.30;;
249;SDS011;109;19.806;-70.704;2024-01-25T02:54:47;33.87;;;5.97;;
249;SDS011;109;19.806;-70.704;2024-01-25T02:57:21;25.53;;;5.27;;
249;SDS011;109;19.806;-70.704;2024-01-25T02:59:47;31.00;;;5.67;;
249;SDS011;109;19.806;-70.704;2024-01-25T03:02:20;37.67;;;6.70;;
249;SDS011;109;19.806;-70.704;2024-01-25T03:04:46;43.30;;;6.93;;
249;SDS011;109;19.806;-70.704;2024-01-25T03:07:19;44.93;;;7.10;;
249;SDS011;109;19.806;-70.704;2024-01-25T03:09:45;41.30;;;7.83;;
249;SDS011;109;19.806;-70.704;2024-01-25T03:12:18;43.10;;;7.60;;
249;SDS011;109;19.806;-70.704;2024-01-25T03:14:45;42.43;;;7.00;;
249;SDS011;109;19.806;-70.704;2024-01-25T03:17:18;35.43;;;7.83;;
249;SDS011;109;19.806;-70.704;2024-01-25T03:19:44;25.97;;;6.83;;
249;SDS011;109;19.806;-70.704;2024-01-25T03:22:17;28.90;;;5.40;;
249;SDS011;109;19.806;-70.704;2024-01-25T03:24:43;27.63;;;5.30;;
249;SDS011;109;19.806;-70.704;2024-01-25T03:27:16;26.00;;;6.27;;
249;SDS011;109;19.806;-70.704;2024-01-25T03:29:42;24.70;;;6.07;;
249;SDS011;109;19.806;-70.704;2024-01-25T03:32:16;29.77;;;6.00;;
249;SDS011;109;19.806;-70.704;2024-01-25T03:34:42;20.50;;;5.00;;
249;SDS011;109;19.806;-70.704;2024-01-25T03:37:15;37.00;;;7.50;;
249;SDS011;109;19.806;-70.704;2024-01-25T03:39:41;25.83;;;5.00;;
249;SDS011;109;19.806;-70.704;2024-01-25T03:42:20;26.00;;;5.10;;
249;SDS011;109;19.806;-70.704;2024-01-25T03:44:54;29.77;;;5.40;;
249;SDS011;109;19.806;-70.704;2024-01-25T03:47:20;30.13;;;5.87;;
249;SDS011;109;19.806;-70.704;2024-01-25T03:49:53;33.50;;;5.83;;
249;SDS011;109;19.806;-70.704;2024-01-25T03:52:19;35.10;;;6.03;;
249;SDS011;109;19.806;-70.704;2024-01-25T03:54:52;31.73;;;6.10;;
249;SDS011;109;19.806;-70.704;2024-01-25T03:57:18;28.80;;;6.30;;
249;SDS011;109;19.806;-70.704;2024-01-25T03:59:51;25.10;;;5.10;;
249;SDS011;109;19.806;-70.704;2024-01-25T04:02:31;24.33;;;5.77;;
249;SDS011;109;19.806;-70.704;2024-01-25T04:04:57;31.83;;;5.67;;
249;SDS011;109;19.806;-70.704;2024-01-25T04:07:30;28.53;;;5.60;;
249;SDS011;109;19.806;-70.704;2024-01-25T04:09:56;31.43;;;6.73;;
249;SDS011;109;19.806;-70.704;2024-01-25T04:12:29;33.20;;;6.10;;
249;SDS011;109;19.806;-70.704;2024-01-25T04:14:56;24.83;;;4.90;;
249;SDS011;109;19.806;-70.704;2024-01-25T04:17:30;30.53;;;5.10;;
249;SDS011;109;19.806;-70.704;2024-01-25T04:19:56;32.27;;;6.03;;
249;SDS011;109;19.806;-70.704;2024-01-25T04:22:29;24.17;;;5.10;;
249;SDS011;109;19.806;-70.704;2024-01-25T04:24:55;51.37;;;5.40;;
249;SDS011;109;19.806;-70.704;2024-01-25T04:27:28;30.17;;;5.50;;
249;SDS011;109;19.806;-70.704;2024-01-25T04:29:54;32.00;;;5.77;;
249;SDS011;109;19.806;-70.704;2024-01-25T04:32:27;26.03;;;5.20;;
249;SDS011;109;19.806;-70.704;2024-01-25T04:34:53;32.97;;;5.70;;
249;SDS011;109;19.806;-70.704;2024-01-25T04:37:26;22.73;;;5.40;;
249;SDS011;109;19.806;-70.704;2024-01-25T04:39:52;22.20;;;5.23;;
249;SDS011;109;19.806;-70.704;2024-01-25T04:42:31;30.20;;;5.73;;
249;SDS011;109;19.806;-70.704;2024-01-25T04:45:05;39.07;;;5.87;;
249;SDS011;109;19.806;-70.704;2024-01-25T04:47:32;30.53;;;5.80;;
249;SDS011;109;19.806;-70.704;2024-01-25T04:50:05;31.03;;;5.17;;
249;SDS011;109;19.806;-70.704;2024-01-25T04:52:31;29.63;;;5.40;;
249;SDS011;109;19.806;-70.704;2024-01-25T04:55:05;25.40;;;5.50;;
249;SDS011;109;19.806;-70.704;2024-01-25T04:57:31;25.03;;;5.77;;
249;SDS011;109;19.806;-70.704;2024-01-25T05:00:05;23.13;;;5.83;;
249;SDS011;109;19.806;-70.704;2024-01-25T05:02:32;36.37;;;6.20;;
249;SDS011;109;19.806;-70.704;2024-01-25T05:05:05;44.60;;;7.30;;
249;SDS011;109;19.806;-70.704;2024-01-25T05:07:31;45.63;;;7.70;;
249;SDS011;109;19.806;-70.704;2024-01-25T05:10:04;58.10;;;7.80;;
249;SDS011;109;19.806;-70.704;2024-01-25T05:12:30;53.93;;;7.57;;
249;SDS011;109;19.806;-70.704;2024-01-25T05:15:04;45.37;;;7.13;;
249;SDS011;109;19.806;-70.704;2024-01-25T05:17:30;34.10;;;6.43;;
249;SDS011;109;19.806;-70.704;2024-01-25T05:20:04;39.63;;;5.50;;
249;SDS011;109;19.806;-70.704;2024-01-25T05:22:31;34.23;;;5.07;;
249;SDS011;109;19.806;-70.704;2024-01-25T05:25:04;33.00;;;6.07;;
249;SDS011;109;19.806;-70.704;2024-01-25T05:27:31;26.20;;;4.80;;
249;SDS011;109;19.806;-70.704;2024-01-25T05:30:04;29.20;;;4.20;;
249;SDS011;109;19.806;-70.704;2024-01-25T05:32:31;26.43;;;4.30;;
249;SDS011;109;19.806;-70.704;2024-01-25T05:35:04;27.33;;;4.90;;
249;SDS011;109;19.806;-70.704;2024-01-25T05:37:31;49.93;;;7.47;;
249;SDS011;109;19.806;-70.704;2024-01-25T05:40:05;53.80;;;7.20;;
249;SDS011;109;19.806;-70.704;2024-01-25T05:42:51;28.70;;;7.03;;
249;SDS011;109;19.806;-70.704;2024-01-25T05:45:25;43.93;;;6.57;;
249;SDS011;109;19.806;-70.704;2024-01-25T05:47:51;33.13;;;6.70;;
249;SDS011;109;19.806;-70.704;2024-01-25T05:50:25;28.27;;;6.40;;
249;SDS011;109;19.806;-70.704;2024-01-25T05:52:51;24.83;;;4.87;;
249;SDS011;109;19.806;-70.704;2024-01-25T05:55:24;28.37;;;5.47;;
249;SDS011;109;19.806;-70.704;2024-01-25T05:57:50;23.37;;;5.20;;
249;SDS011;109;19.806;-70.704;2024-01-25T06:00:23;21.70;;;4.97;;
249;SDS011;109;19.806;-70.704;2024-01-25T06:02:49;19.97;;;4.30;;
249;SDS011;109;19.806;-70.704;2024-01-25T06:05:22;17.73;;;4.70;;
249;SDS011;109;19.806;-70.704;2024-01-25T06:07:48;23.03;;;3.90;;
249;SDS011;109;19.806;-70.704;2024-01-25T06:10:23;23.00;;;4.50;;
249;SDS011;109;19.806;-70.704;2024-01-25T06:12:49;19.60;;;5.10;;
249;SDS011;109;19.806;-70.704;2024-01-25T06:15:22;35.30;;;5.30;;
249;SDS011;109;19.806;-70.704;2024-01-25T06:17:48;22.17;;;4.97;;
249;SDS011;109;19.806;-70.704;2024-01-25T06:20:21;18.60;;;4.33;;
249;SDS011;109;19.806;-70.704;2024-01-25T06:22:47;28.43;;;6.63;;
249;SDS011;109;19.806;-70.704;2024-01-25T06:25:20;20.23;;;4.93;;
249;SDS011;109;19.806;-70.704;2024-01-25T06:27:54;16.83;;;4.77;;
249;SDS011;109;19.806;-70.704;2024-01-25T06:30:28;33.07;;;4.80;;
249;SDS011;109;19.806;-70.704;2024-01-25T06:32:54;19.20;;;4.40;;
249;SDS011;109;19.806;-70.704;2024-01-25T06:35:27;19.77;;;4.13;;
249;SDS011;109;19.806;-70.704;2024-01-25T06:37:53;17.27;;;4.47;;
249;SDS011;109;19.806;-70.704;2024-01-25T06:40:26;18.03;;;4.40;;
249;SDS011;109;19.806;-70.704;2024-01-25T06:43:12;17.10;;;4.10;;
249;SDS011;109;19.806;-70.704;2024-01-25T06:45:46;35.07;;;4.93;;
249;SDS011;109;19.806;-70.704;2024-01-25T06:48:12;23.27;;;4.57;;
249;SDS011;109;19.806;-70.704;2024-01-25T06:50:45;37.50;;;5.03;;
249;SDS011;109;19.806;-70.704;2024-01-25T06:53:11;23.30;;;4.90;;
249;SDS011;109;19.806;-70.704;2024-01-25T06:55:44;23.37;;;4.80;;
249;SDS011;109;19.806;-70.704;2024-01-25T06:58:10;26.90;;;4.87;;
249;SDS011;109;19.806;-70.704;2024-01-25T07:00:43;27.13;;;5.03;;
249;SDS011;109;19.806;-70.704;2024-01-25T07:03:10;24.63;;;4.73;;
249;SDS011;109;19.806;-70.704;2024-01-25T07:05:44;25.80;;;4.77;;
249;SDS011;109;19.806;-70.704;2024-01-25T07:08:10;22.27;;;4.40;;
249;SDS011;109;19.806;-70.704;2024-01-25T07:10:47;21.63;;;4.57;;
249;SDS011;109;19.806;-70.704;2024-01-25T07:13:13;27.27;;;5.97;;
249;SDS011;109;19.806;-70.704;2024-01-25T07:15:46;27.83;;;5.07;;
249;SDS011;109;19.806;-70.704;2024-01-25T07:18:12;26.47;;;5.40;;
249;SDS011;109;19.806;-70.704;2024-01-25T07:20:45;21.47;;;4.40;;
249;SDS011;109;19.806;-70.704;2024-01-25T07:23:11;21.03;;;4.77;;
249;SDS011;109;19.806;-70.704;2024-01-25T07:25:44;17.20;;;4.10;;
249;SDS011;109;19.806;-70.704;2024-01-25T07:28:10;21.47;;;4.30;;
249;SDS011;109;19.806;-70.704;2024-01-25T07:30:46;21.83;;;4.40;;
249;SDS011;109;19.806;-70.704;2024-01-25T07:33:13;19.80;;;3.87;;
249;SDS011;109;19.806;-70.704;2024-01-25T07:35:46;16.33;;;4.60;;
249;SDS011;109;19.806;-70.704;2024-01-25T07:38:13;16.43;;;4.00;;
249;SDS011;109;19.806;-70.704;2024-01-25T07:40:48;26.97;;;5.63;;
249;SDS011;109;19.806;-70.704;2024-01-25T07:43:34;34.90;;;7.33;;
249;SDS011;109;19.806;-70.704;2024-01-25T07:46:15;27.50;;;4.93;;
249;SDS011;109;19.806;-70.704;2024-01-25T07:48:48;25.87;;;4.37;;
249;SDS011;109;19.806;-70.704;2024-01-25T07:51:14;23.57;;;4.73;;
249;SDS011;109;19.806;-70.704;2024-01-25T07:53:47;14.07;;;3.80;;
249;SDS011;109;19.806;-70.704;2024-01-25T07:56:13;23.37;;;4.67;;
249;SDS011;109;19.806;-70.704;2024-01-25T07:58:46;21.00;;;4.10;;
249;SDS011;109;19.806;-70.704;2024-01-25T08:01:17;18.10;;;4.30;;
249;SDS011;109;19.806;-70.704;2024-01-25T08:03:51;18.00;;;3.90;;
249;SDS011;109;19.806;-70.704;2024-01-25T08:06:17;31.77;;;4.80;;
249;SDS011;109;19.806;-70.704;2024-01-25T08:08:50;23.73;;;4.73;;
249;SDS011;109;19.806;-70.704;2024-01-25T08:11:16;28.27;;;4.97;;
249;SDS011;109;19.806;-70.704;2024-01-25T08:13:52;18.93;;;4.40;;
249;SDS011;109;19.806;-70.704;2024-01-25T08:16:18;14.43;;;4.20;;
249;SDS011;109;19.806;-70.704;2024-01-25T08:18:51;23.60;;;4.70;;
249;SDS011;109;19.806;-70.704;2024-01-25T08:21:17;32.13;;;5.37;;
249;SDS011;109;19.806;-70.704;2024-01-25T08:23:51;19.93;;;4.50;;
249;SDS011;109;19.806;-70.704;2024-01-25T08:26:17;24.27;;;4.50;;
249;SDS011;109;19.806;-70.704;2024-01-25T08:28:50;17.47;;;3.83;;
249;SDS011;109;19.806;-70.704;2024-01-25T08:31:16;22.77;;;4.70;;
249;SDS011;109;19.806;-70.704;2024-01-25T08:33:50;28.03;;;4.77;;
249;SDS011;109;19.806;-70.704;2024-01-25T08:36:19;18.70;;;4.40;;
249;SDS011;109;19.806;-70.704;2024-01-25T08:38:52;18.50;;;4.20;;
249;SDS011;109;19.806;-70.704;2024-01-25T08:41:18;22.40;;;4.03;;
249;SDS011;109;19.806;-70.704;2024-01-25T08:43:51;29.87;;;4.80;;
249;SDS011;109;19.806;-70.704;2024-01-25T08:46:31;29.70;;;4.43;;
249;SDS011;109;19.806;-70.704;2024-01-25T08:48:57;10.80;;;3.80;;
249;SDS011;109;19.806;-70.704;2024-01-25T08:51:30;26.87;;;3.97;;
249;SDS011;109;19.806;-70.704;2024-01-25T08:53:56;20.60;;;3.90;;
249;SDS011;109;19.806;-70.704;2024-01-25T08:56:29;16.23;;;4.57;;
249;SDS011;109;19.806;-70.704;2024-01-25T08:58:55;26.93;;;4.80;;
249;SDS011;109;19.806;-70.704;2024-01-25T09:01:29;17.83;;;3.93;;
249;SDS011;109;19.806;-70.704;2024-01-25T09:03:55;24.23;;;4.70;;
249;SDS011;109;19.806;-70.704;2024-01-25T09:06:34;17.50;;;4.63;;
249;SDS011;109;19.806;-70.704;2024-01-25T09:09:00;19.90;;;4.40;;
249;SDS011;109;19.806;-70.704;2024-01-25T09:11:34;15.37;;;4.23;;
249;SDS011;109;19.806;-70.704;2024-01-25T09:14:00;18.03;;;4.33;;
249;SDS011;109;19.806;-70.704;2024-01-25T09:16:33;13.27;;;3.80;;
249;SDS011;109;19.806;-70.704;2024-01-25T09:18:59;13.13;;;3.73;;
249;SDS011;109;19.806;-70.704;2024-01-25T09:21:32;20.63;;;4.30;;
249;SDS011;109;19.806;-70.704;2024-01-25T09:23:58;16.70;;;4.40;;
249;SDS011;109;19.806;-70.704;2024-01-25T09:26:32;25.27;;;4.63;;
249;SDS011;109;19.806;-70.704;2024-01-25T09:28:59;15.93;;;4.13;;
249;SDS011;109;19.806;-70.704;2024-01-25T09:31:32;17.47;;;3.90;;
249;SDS011;109;19.806;-70.704;2024-01-25T09:33:58;16.00;;;3.93;;
249;SDS011;109;19.806;-70.704;2024-01-25T09:36:32;16.53;;;4.00;;
249;SDS011;109;19.806;-70.704;2024-01-25T09:38:58;24.43;;;4.83;;
249;SDS011;109;19.806;-70.704;2024-01-25T09:41:39;19.80;;;3.97;;
249;SDS011;109;19.806;-70.704;2024-01-25T09:44:13;18.63;;;4.60;;
249;SDS011;109;19.806;-70.704;2024-01-25T09:46:39;18.67;;;3.63;;
249;SDS011;109;19.806;-70.704;2024-01-25T09:49:14;16.03;;;3.97;;
249;SDS011;109;19.806;-70.704;2024-01-25T09:51:40;18.00;;;3.67;;
249;SDS011;109;19.806;-70.704;2024-01-25T09:54:15;11.20;;;4.10;;
249;SDS011;109;19.806;-70.704;2024-01-25T09:56:42;18.23;;;3.70;;
249;SDS011;109;19.806;-70.704;2024-01-25T09:59:15;13.67;;;3.50;;
249;SDS011;109;19.806;-70.704;2024-01-25T10:01:41;11.20;;;3.90;;
249;SDS011;109;19.806;-70.704;2024-01-25T10:04:15;20.23;;;3.70;;
249;SDS011;109;19.806;-70.704;2024-01-25T10:06:44;17.37;;;3.70;;
249;SDS011;109;19.806;-70.704;2024-01-25T10:09:18;20.53;;;3.60;;
249;SDS011;109;19.806;-70.704;2024-01-25T10:11:44;17.80;;;4.20;;
249;SDS011;109;19.806;-70.704;2024-01-25T10:14:17;18.77;;;4.80;;
249;SDS011;109;19.806;-70.704;2024-01-25T10:16:44;29.40;;;4.80;;
249;SDS011;109;19.806;-70.704;2024-01-25T10:19:18;18.90;;;4.40;;
249;SDS011;109;19.806;-70.704;2024-01-25T10:21:46;18.40;;;4.20;;
249;SDS011;109;19.806;-70.704;2024-01-25T10:24:19;20.53;;;4.73;;
249;SDS011;109;19.806;-70.704;2024-01-25T10:26:45;51.60;;;5.43;;
249;SDS011;109;19.806;-70.704;2024-01-25T10:29:18;15.83;;;3.97;;
249;SDS011;109;19.806;-70.704;2024-01-25T10:31:44;21.57;;;4.37;;
249;SDS011;109;19.806;-70.704;2024-01-25T10:34:18;25.07;;;4.17;;
249;SDS011;109;19.806;-70.704;2024-01-25T10:36:45;23.10;;;3.87;;
249;SDS011;109;19.806;-70.704;2024-01-25T10:39:19;16.40;;;4.17;;
249;SDS011;109;19.806;-70.704;2024-01-25T10:41:47;16.27;;;4.27;;
249;SDS011;109;19.806;-70.704;2024-01-25T10:44:22;17.73;;;3.93;;
249;SDS011;109;19.806;-70.704;2024-01-25T10:46:48;19.73;;;4.37;;
249;SDS011;109;19.806;-70.704;2024-01-25T10:49:16;20.87;;;4.33;;
249;SDS011;109;19.806;-70.704;2024-01-25T10:51:44;22.73;;;3.80;;
249;SDS011;109;19.806;-70.704;2024-01-25T10:54:13;18.90;;;3.73;;
249;SDS011;109;19.806;-70.704;2024-01-25T10:56:41;18.90;;;4.50;;
249;SDS011;109;19.806;-70.704;2024-01-25T10:59:08;18.23;;;3.80;;
249;SDS011;109;19.806;-70.704;2024-01-25T11:01:36;18.07;;;4.40;;
249;SDS011;109;19.806;-70.704;2024-01-25T11:04:03;21.07;;;4.40;;
249;SDS011;109;19.806;-70.704;2024-01-25T11:06:37;18.77;;;4.20;;
249;SDS011;109;19.806;-70.704;2024-01-25T11:09:04;30.83;;;5.00;;
249;SDS011;109;19.806;-70.704;2024-01-25T11:11:31;20.53;;;3.77;;
249;SDS011;109;19.806;-70.704;2024-01-25T11:13:58;19.73;;;4.87;;
249;SDS011;109;19.806;-70.704;2024-01-25T11:16:28;24.20;;;4.17;;
249;SDS011;109;19.806;-70.704;2024-01-25T11:18:57;24.30;;;4.57;;
249;SDS011;109;19.806;-70.704;2024-01-25T11:21:49;22.63;;;4.53;;
249;SDS011;109;19.806;-70.704;2024-01-25T11:24:19;18.20;;;4.33;;
249;SDS011;109;19.806;-70.704;2024-01-25T11:26:47;27.63;;;4.83;;
249;SDS011;109;19.806;-70.704;2024-01-25T11:29:17;22.03;;;4.80;;
249;SDS011;109;19.806;-70.704;2024-01-25T11:31:46;19.47;;;4.67;;
249;SDS011;109;19.806;-70.704;2024-01-25T11:34:14;27.33;;;4.60;;
249;SDS011;109;19.806;-70.704;2024-01-25T11:36:42;20.40;;;5.43;;
249;SDS011;109;19.806;-70.704;2024-01-25T11:39:09;16.63;;;4.17;;
249;SDS011;109;19.806;-70.704;2024-01-25T11:41:37;18.20;;;5.00;;
249;SDS011;109;19.806;-70.704;2024-01-25T11:44:03;24.37;;;5.17;;
249;SDS011;109;19.806;-70.704;2024-01-25T11:46:31;31.33;;;7.93;;
249;SDS011;109;19.806;-70.704;2024-01-25T11:49:00;27.30;;;8.30;;
249;SDS011;109;19.806;-70.704;2024-01-25T11:51:27;17.67;;;6.27;;
249;SDS011;109;19.806;-70.704;2024-01-25T11:53:54;30.33;;;5.80;;
249;SDS011;109;19.806;-70.704;2024-01-25T11:56:21;18.40;;;5.10;;
249;SDS011;109;19.806;-70.704;2024-01-25T11:58:51;24.33;;;4.97;;
249;SDS011;109;19.806;-70.704;2024-01-25T12:01:22;17.57;;;5.23;;
249;SDS011;109;19.806;-70.704;2024-01-25T12:03:50;18.43;;;4.90;;
249;SDS011;109;19.806;-70.704;2024-01-25T12:06:17;20.27;;;4.97;;
249;SDS011;109;19.806;-70.704;2024-01-25T12:08:44;24.27;;;4.87;;
249;SDS011;109;19.806;-70.704;2024-01-25T12:11:14;24.17;;;6.57;;
249;SDS011;109;19.806;-70.704;2024-01-25T12:13:44;19.00;;;4.87;;
249;SDS011;109;19.806;-70.704;2024-01-25T12:16:11;16.63;;;4.40;;
249;SDS011;109;19.806;-70.704;2024-01-25T12:18:42;21.17;;;4.73;;
249;SDS011;109;19.806;-70.704;2024-01-25T12:21:09;26.47;;;4.53;;
249;SDS011;109;19.806;-70.704;2024-01-25T12:23:36;26.40;;;4.60;;
249;SDS011;109;19.806;-70.704;2024-01-25T12:26:08;15.77;;;4.63;;
249;SDS011;109;19.806;-70.704;2024-01-25T12:28:37;20.03;;;5.27;;
249;SDS011;109;19.806;-70.704;2024-01-25T12:31:04;30.50;;;4.80;;
249;SDS011;109;19.806;-70.704;2024-01-25T12:33:32;20.33;;;4.83;;
249;SDS011;109;19.806;-70.704;2024-01-25T12:36:01;21.40;;;3.77;;
249;SDS011;109;19.806;-70.704;2024-01-25T12:38:28;30.03;;;4.73;;
249;SDS011;109;19.806;-70.704;2024-01-25T12:40:57;19.53;;;4.30;;
249;SDS011;109;19.806;-70.704;2024-01-25T12:43:23;19.10;;;4.50;;
249;SDS011;109;19.806;-70.704;2024-01-25T12:45:50;18.53;;;4.10;;
249;SDS011;109;19.806;-70.704;2024-01-25T12:48:17;20.23;;;3.97;;
249;SDS011;109;19.806;-70.704;2024-01-25T12:50:43;11.10;;;4.47;;
249;SDS011;109;19.806;-70.704;2024-01-25T12:53:10;25.27;;;5.10;;
249;SDS011;109;19.806;-70.704;2024-01-25T12:55:37;19.70;;;4.80;;
249;SDS011;109;19.806;-70.704;2024-01-25T12:58:04;20.67;;;4.40;;
249;SDS011;109;19.806;-70.704;2024-01-25T13:00:31;18.23;;;5.00;;
249;SDS011;109;19.806;-70.704;2024-01-25T13:02:58;21.13;;;5.40;;
249;SDS011;109;19.806;-70.704;2024-01-25T13:05:27;24.80;;;4.40;;
249;SDS011;109;19.806;-70.704;2024-01-25T13:07:55;13.77;;;4.53;;
249;SDS011;109;19.806;-70.704;2024-01-25T13:10:21;21.40;;;4.40;;
249;SDS011;109;19.806;-70.704;2024-01-25T13:15:18;17.83;;;4.27;;
249;SDS011;109;19.806;-70.704;2024-01-25T13:17:46;19.00;;;4.00;;
249;SDS011;109;19.806;-70.704;2024-01-25T13:20:12;21.97;;;4.60;;
249;SDS011;109;19.806;-70.704;2024-01-25T13:22:38;17.17;;;3.80;;
249;SDS011;109;19.806;-70.704;2024-01-25T13:25:05;17.93;;;3.93;;
249;SDS011;109;19.806;-70.704;2024-01-25T13:27:31;12.67;;;4.00;;
249;SDS011;109;19.806;-70.704;2024-01-25T13:29:58;21.07;;;4.47;;
249;SDS011;109;19.806;-70.704;2024-01-25T13:32:24;21.93;;;5.73;;
249;SDS011;109;19.806;-70.704;2024-01-25T13:34:50;24.63;;;5.07;;
249;SDS011;109;19.806;-70.704;2024-01-25T13:37:17;20.07;;;4.00;;
249;SDS011;109;19.806;-70.704;2024-01-25T13:39:43;16.60;;;3.70;;
249;SDS011;109;19.806;-70.704;2024-01-25T13:42:10;18.00;;;3.60;;
249;SDS011;109;19.806;-70.704;2024-01-25T13:44:36;18.20;;;4.20;;
249;SDS011;109;19.806;-70.704;2024-01-25T13:47:04;13.63;;;3.47;;
249;SDS011;109;19.806;-70.704;2024-01-25T13:49:30;15.20;;;4.10;;
249;SDS011;109;19.806;-70.704;2024-01-25T13:51:59;21.80;;;3.63;;
249;SDS011;109;19.806;-70.704;2024-01-25T13:54:27;21.87;;;4.03;;
249;SDS011;109;19.806;-70.704;2024-01-25T13:56:54;21.13;;;6.00;;
249;SDS011;109;19.806;-70.704;2024-01-25T13:59:21;13.50;;;5.43;;
249;SDS011;109;19.806;-70.704;2024-01-25T14:01:47;18.73;;;6.90;;
249;SDS011;109;19.806;-70.704;2024-01-25T14:04:15;16.83;;;5.20;;
249;SDS011;109;19.806;-70.704;2024-01-25T14:06:41;16.50;;;4.77;;
249;SDS011;109;19.806;-70.704;2024-01-25T14:09:08;28.10;;;4.30;;
249;SDS011;109;19.806;-70.704;2024-01-25T14:11:34;22.23;;;4.70;;
249;SDS011;109;19.806;-70.704;2024-01-25T14:14:00;15.63;;;3.90;;
249;SDS011;109;19.806;-70.704;2024-01-25T14:16:27;32.37;;;4.80;;
249;SDS011;109;19.806;-70.704;2024-01-25T14:18:53;26.37;;;4.60;;
249;SDS011;109;19.806;-70.704;2024-01-25T14:21:19;32.27;;;5.17;;
249;SDS011;109;19.806;-70.704;2024-01-25T14:23:46;23.83;;;4.77;;
249;SDS011;109;19.806;-70.704;2024-01-25T14:26:13;30.43;;;4.63;;
249;SDS011;109;19.806;-70.704;2024-01-25T14:28:39;26.90;;;5.50;;
249;SDS011;109;19.806;-70.704;2024-01-25T14:31:05;23.10;;;4.50;;
249;SDS011;109;19.806;-70.704;2024-01-25T14:33:32;25.17;;;4.83;;
249;SDS011;109;19.806;-70.704;2024-01-25T14:35:58;29.60;;;6.07;;
249;SDS011;109;19.806;-70.704;2024-01-25T14:38:25;34.10;;;5.67;;
249;SDS011;109;19.806;-70.704;2024-01-25T14:40:52;25.63;;;5.60;;
249;SDS011;109;19.806;-70.704;2024-01-25T14:43:18;21.67;;;4.80;;
249;SDS011;109;19.806;-70.704;2024-01-25T14:45:44;25.43;;;5.67;;
249;SDS011;109;19.806;-70.704;2024-01-25T14:48:11;22.27;;;5.00;;
249;SDS011;109;19.806;-70.704;2024-01-25T14:50:37;33.33;;;5.97;;
249;SDS011;109;19.806;-70.704;2024-01-25T14:53:03;36.53;;;7.30;;
249;SDS011;109;19.806;-70.704;2024-01-25T14:55:30;38.80;;;6.17;;
249;SDS011;109;19.806;-70.704;2024-01-25T14:57:56;27.57;;;5.10;;
249;SDS011;109;19.806;-70.704;2024-01-25T15:00:23;22.20;;;4.30;;
249;SDS011;109;19.806;-70.704;2024-01-25T15:02:49;18.67;;;4.10;;
249;SDS011;109;19.806;-70.704;2024-01-25T15:05:15;17.10;;;4.23;;
249;SDS011;109;19.806;-70.704;2024-01-25T15:07:42;79.50;;;8.87;;
249;SDS011;109;19.806;-70.704;2024-01-25T15:10:08;23.40;;;4.80;;
249;SDS011;109;19.806;-70.704;2024-01-25T15:12:36;27.53;;;6.13;;
249;SDS011;109;19.806;-70.704;2024-01-25T15:15:02;24.23;;;4.20;;
249;SDS011;109;19.806;-70.704;2024-01-25T15:17:28;27.73;;;4.57;;
249;SDS011;109;19.806;-70.704;2024-01-25T15:19:55;28.50;;;4.50;;
249;SDS011;109;19.806;-70.704;2024-01-25T15:22:21;18.10;;;3.30;;
249;SDS011;109;19.806;-70.704;2024-01-25T15:24:51;27.60;;;4.57;;
249;SDS011;109;19.806;-70.704;2024-01-25T15:27:18;28.30;;;4.27;;